sensor_id;sensor_type;location;lat;lon;timestamp;pressure;altitude;pressure_sealevel;temperature;humidity
21640;BME280;10981;45.462;10.974;2023-06-26T00:00:51;100602.19;;;21.81;100.00
21640;BME280;10981;45.462;10.974;2023-06-26T00:03:19;100605.44;;;21.76;100.00
21640;BME280;10981;45.462;10.974;2023-06-26T00:05:48;100608.28;;;21.75;100.00
21640;BME280;10981;45.462;10.974;2023-06-26T00:08:16;100606.88;;;21.79;100.00
21640;BME280;10981;45.462;10.974;2023-06-26T00:10:44;100612.81;;;21.81;100.00
21640;BME280;10981;45.462;10.974;2023-06-26T00:13:14;100607.47;;;21.74;100.00
21640;BME280;10981;45.462;10.974;2023-06-26T00:15:42;100607.03;;;21.64;100.00
21640;BME280;10981;45.462;10.974;2023-06-26T00:18:10;100609.47;;;21.59;100.00
21640;BME280;10981;45.462;10.974;2023-06-26T00:20:38;100611.47;;;21.50;100.00
21640;BME280;10981;45.462;10.974;2023-06-26T00:23:07;100606.25;;;21.35;100.00
21640;BME280;10981;45.462;10.974;2023-06-26T00:25:35;100602.72;;;21.28;100.00
21640;BME280;10981;45.462;10.974;2023-06-26T00:28:04;100603.41;;;21.43;100.00
21640;BME280;10981;45.462;10.974;2023-06-26T00:30:32;100610.38;;;21.44;100.00
21640;BME280;10981;45.462;10.974;2023-06-26T00:33:00;100607.28;;;21.40;100.00
21640;BME280;10981;45.462;10.974;2023-06-26T00:35:29;100611.41;;;21.43;100.00
21640;BME280;10981;45.462;10.974;2023-06-26T00:37:57;100607.91;;;21.36;100.00
21640;BME280;10981;45.462;10.974;2023-06-26T00:40:25;100608.69;;;21.30;100.00
21640;BME280;10981;45.462;10.974;2023-06-26T00:42:54;100603.56;;;21.28;100.00
21640;BME280;10981;45.462;10.974;2023-06-26T00:45:23;100604.59;;;21.27;100.00
21640;BME280;10981;45.462;10.974;2023-06-26T00:48:11;100600.25;;;21.19;100.00
21640;BME280;10981;45.462;10.974;2023-06-26T00:50:41;100604.13;;;21.17;100.00
21640;BME280;10981;45.462;10.974;2023-06-26T00:53:12;100603.47;;;21.15;100.00
21640;BME280;10981;45.462;10.974;2023-06-26T00:55:40;100607.56;;;21.11;100.00
21640;BME280;10981;45.462;10.974;2023-06-26T00:58:10;100608.13;;;21.06;100.00
21640;BME280;10981;45.462;10.974;2023-06-26T01:00:38;100607.53;;;21.04;100.00
21640;BME280;10981;45.462;10.974;2023-06-26T01:03:07;100606.69;;;21.03;100.00
21640;BME280;10981;45.462;10.974;2023-06-26T01:05:36;100600.16;;;21.06;100.00
21640;BME280;10981;45.462;10.974;2023-06-26T01:08:04;100601.00;;;21.06;100.00
21640;BME280;10981;45.462;10.974;2023-06-26T01:10:32;100602.66;;;21.14;100.00
21640;BME280;10981;45.462;10.974;2023-06-26T01:13:01;100598.56;;;21.12;100.00
21640;BME280;10981;45.462;10.974;2023-06-26T01:15:30;100595.47;;;21.08;100.00
21640;BME280;10981;45.462;10.974;2023-06-26T01:17:58;100601.00;;;21.06;100.00
21640;BME280;10981;45.462;10.974;2023-06-26T01:20:31;100597.13;;;21.09;100.00
21640;BME280;10981;45.462;10.974;2023-06-26T01:26:21;100603.00;;;21.04;100.00
21640;BME280;10981;45.462;10.974;2023-06-26T01:28:53;100602.78;;;20.99;100.00
21640;BME280;10981;45.462;10.974;2023-06-26T01:31:21;100598.44;;;20.92;100.00
21640;BME280;10981;45.462;10.974;2023-06-26T01:33:50;100601.06;;;20.85;100.00
21640;BME280;10981;45.462;10.974;2023-06-26T01:36:21;100598.16;;;20.80;100.00
21640;BME280;10981;45.462;10.974;2023-06-26T01:38:50;100597.31;;;20.79;100.00
21640;BME280;10981;45.462;10.974;2023-06-26T01:41:19;100596.69;;;20.77;100.00
21640;BME280;10981;45.462;10.974;2023-06-26T01:46:49;100589.75;;;20.76;100.00
21640;BME280;10981;45.462;10.974;2023-06-26T01:49:42;100593.22;;;20.77;100.00
21640;BME280;10981;45.462;10.974;2023-06-26T01:57:52;100589.75;;;20.76;100.00
21640;BME280;10981;45.462;10.974;2023-06-26T02:00:22;100592.75;;;20.73;100.00
21640;BME280;10981;45.462;10.974;2023-06-26T02:02:52;100596.63;;;20.70;100.00
21640;BME280;10981;45.462;10.974;2023-06-26T02:05:20;100591.13;;;20.72;100.00
21640;BME280;10981;45.462;10.974;2023-06-26T02:07:48;100594.84;;;20.78;100.00
21640;BME280;10981;45.462;10.974;2023-06-26T02:10:17;100598.16;;;20.80;100.00
21640;BME280;10981;45.462;10.974;2023-06-26T02:12:45;100597.94;;;20.81;100.00
21640;BME280;10981;45.462;10.974;2023-06-26T02:15:15;100610.81;;;20.78;100.00
21640;BME280;10981;45.462;10.974;2023-06-26T02:17:43;100604.03;;;20.75;100.00
21640;BME280;10981;45.462;10.974;2023-06-26T02:20:16;100612.66;;;20.77;100.00
21640;BME280;10981;45.462;10.974;2023-06-26T02:22:44;100609.72;;;20.72;100.00
21640;BME280;10981;45.462;10.974;2023-06-26T02:25:14;100609.56;;;20.73;100.00
21640;BME280;10981;45.462;10.974;2023-06-26T02:27:43;100611.56;;;20.71;100.00
21640;BME280;10981;45.462;10.974;2023-06-26T02:30:12;100614.22;;;20.71;100.00
21640;BME280;10981;45.462;10.974;2023-06-26T02:32:41;100607.63;;;20.67;100.00
21640;BME280;10981;45.462;10.974;2023-06-26T02:35:09;100616.53;;;20.74;100.00
21640;BME280;10981;45.462;10.974;2023-06-26T02:37:42;100615.31;;;20.77;100.00
21640;BME280;10981;45.462;10.974;2023-06-26T02:40:10;100618.88;;;20.69;100.00
21640;BME280;10981;45.462;10.974;2023-06-26T02:42:41;100616.38;;;20.61;100.00
21640;BME280;10981;45.462;10.974;2023-06-26T02:45:09;100611.25;;;20.60;100.00
21640;BME280;10981;45.462;10.974;2023-06-26T02:47:38;100609.59;;;20.58;100.00
21640;BME280;10981;45.462;10.974;2023-06-26T02:50:10;100610.25;;;20.61;100.00
21640;BME280;10981;45.462;10.974;2023-06-26T02:53:06;100609.81;;;20.57;100.00
21640;BME280;10981;45.462;10.974;2023-06-26T02:55:35;100607.06;;;20.50;100.00
21640;BME280;10981;45.462;10.974;2023-06-26T02:58:06;100605.38;;;20.42;100.00
21640;BME280;10981;45.462;10.974;2023-06-26T03:00:38;100613.09;;;20.37;100.00
21640;BME280;10981;45.462;10.974;2023-06-26T03:03:13;100605.56;;;20.41;100.00
21640;BME280;10981;45.462;10.974;2023-06-26T03:05:41;100610.88;;;20.41;100.00
21640;BME280;10981;45.462;10.974;2023-06-26T03:08:10;100614.13;;;20.36;100.00
21640;BME280;10981;45.462;10.974;2023-06-26T03:10:38;100616.88;;;20.28;100.00
21640;BME280;10981;45.462;10.974;2023-06-26T03:13:07;100611.19;;;20.09;100.00
21640;BME280;10981;45.462;10.974;2023-06-26T03:15:36;100610.91;;;20.04;100.00
21640;BME280;10981;45.462;10.974;2023-06-26T03:18:04;100608.66;;;20.01;100.00
21640;BME280;10981;45.462;10.974;2023-06-26T03:20:34;100609.28;;;20.03;100.00
21640;BME280;10981;45.462;10.974;2023-06-26T03:23:02;100608.09;;;20.06;100.00
21640;BME280;10981;45.462;10.974;2023-06-26T03:25:30;100607.72;;;20.09;100.00
21640;BME280;10981;45.462;10.974;2023-06-26T03:28:19;100611.19;;;20.09;100.00
21640;BME280;10981;45.462;10.974;2023-06-26T03:30:50;100612.81;;;20.11;100.00
21640;BME280;10981;45.462;10.974;2023-06-26T03:33:19;100621.63;;;20.11;100.00
21640;BME280;10981;45.462;10.974;2023-06-26T03:35:47;100619.34;;;20.08;100.00
21640;BME280;10981;45.462;10.974;2023-06-26T03:38:16;100624.03;;;20.06;100.00
21640;BME280;10981;45.462;10.974;2023-06-26T03:40:45;100625.84;;;20.05;100.00
21640;BME280;10981;45.462;10.974;2023-06-26T03:43:13;100621.63;;;20.11;100.00
21640;BME280;10981;45.462;10.974;2023-06-26T03:45:53;100622.69;;;20.17;100.00
21640;BME280;10981;45.462;10.974;2023-06-26T03:48:21;100619.28;;;20.23;100.00
21640;BME280;10981;45.462;10.974;2023-06-26T03:50:50;100617.94;;;20.34;100.00
21640;BME280;10981;45.462;10.974;2023-06-26T03:53:18;100623.34;;;20.40;100.00
21640;BME280;10981;45.462;10.974;2023-06-26T03:55:47;100613.59;;;20.48;100.00
21640;BME280;10981;45.462;10.974;2023-06-26T03:58:15;100625.09;;;20.55;100.00
21640;BME280;10981;45.462;10.974;2023-06-26T04:00:43;100623.91;;;20.57;100.00
21640;BME280;10981;45.462;10.974;2023-06-26T04:03:11;100625.50;;;20.52;100.00
21640;BME280;10981;45.462;10.974;2023-06-26T04:05:39;100620.34;;;20.50;100.00
21640;BME280;10981;45.462;10.974;2023-06-26T04:08:08;100608.47;;;20.46;100.00
21640;BME280;10981;45.462;10.974;2023-06-26T04:10:37;100617.19;;;20.62;100.00
21640;BME280;10981;45.462;10.974;2023-06-26T04:13:06;100616.69;;;20.73;100.00
21640;BME280;10981;45.462;10.974;2023-06-26T04:15:34;100611.22;;;20.74;100.00
21640;BME280;10981;45.462;10.974;2023-06-26T04:18:03;100616.53;;;20.74;100.00
21640;BME280;10981;45.462;10.974;2023-06-26T04:20:31;100626.84;;;20.69;100.00
21640;BME280;10981;45.462;10.974;2023-06-26T04:22:59;100626.84;;;20.69;100.00
21640;BME280;10981;45.462;10.974;2023-06-26T04:25:27;100630.31;;;20.63;100.00
21640;BME280;10981;45.462;10.974;2023-06-26T04:27:57;100625.31;;;20.53;100.00
21640;BME280;10981;45.462;10.974;2023-06-26T04:30:25;100635.28;;;20.51;100.00
21640;BME280;10981;45.462;10.974;2023-06-26T04:32:53;100630.81;;;20.52;100.00
21640;BME280;10981;45.462;10.974;2023-06-26T04:35:21;100625.75;;;20.57;100.00
21640;BME280;10981;45.462;10.974;2023-06-26T04:37:50;100623.22;;;20.70;100.00
21640;BME280;10981;45.462;10.974;2023-06-26T04:40:18;100625.06;;;20.98;100.00
21640;BME280;10981;45.462;10.974;2023-06-26T04:42:46;100621.81;;;21.38;100.00
21640;BME280;10981;45.462;10.974;2023-06-26T04:45:14;100618.94;;;22.57;100.00
21640;BME280;10981;45.462;10.974;2023-06-26T04:47:42;100623.06;;;24.93;90.76
21640;BME280;10981;45.462;10.974;2023-06-26T04:50:11;100618.03;;;26.74;80.10
21640;BME280;10981;45.462;10.974;2023-06-26T04:52:39;100625.72;;;27.18;75.00
21640;BME280;10981;45.462;10.974;2023-06-26T04:55:07;100621.66;;;26.14;76.45
21640;BME280;10981;45.462;10.974;2023-06-26T04:57:35;100619.59;;;25.29;83.34
21640;BME280;10981;45.462;10.974;2023-06-26T05:00:06;100628.28;;;24.30;90.10
21640;BME280;10981;45.462;10.974;2023-06-26T05:02:38;100630.06;;;23.59;95.95
21640;BME280;10981;45.462;10.974;2023-06-26T05:05:07;100628.75;;;23.03;100.00
21640;BME280;10981;45.462;10.974;2023-06-26T05:07:35;100626.31;;;22.68;100.00
21640;BME280;10981;45.462;10.974;2023-06-26T05:10:03;100624.47;;;22.75;100.00
21640;BME280;10981;45.462;10.974;2023-06-26T05:12:33;100625.69;;;22.73;100.00
21640;BME280;10981;45.462;10.974;2023-06-26T05:15:01;100627.75;;;22.64;100.00
21640;BME280;10981;45.462;10.974;2023-06-26T05:17:30;100623.03;;;22.59;100.00
21640;BME280;10981;45.462;10.974;2023-06-26T05:19:58;100626.72;;;22.65;100.00
21640;BME280;10981;45.462;10.974;2023-06-26T05:22:26;100629.81;;;22.62;100.00
21640;BME280;10981;45.462;10.974;2023-06-26T05:24:55;100622.22;;;22.79;100.00
21640;BME280;10981;45.462;10.974;2023-06-26T05:27:27;100634.50;;;22.93;100.00
21640;BME280;10981;45.462;10.974;2023-06-26T05:29:55;100624.84;;;23.06;100.00
21640;BME280;10981;45.462;10.974;2023-06-26T05:32:24;100635.72;;;23.11;100.00
21640;BME280;10981;45.462;10.974;2023-06-26T05:34:54;100634.66;;;23.25;99.23
21640;BME280;10981;45.462;10.974;2023-06-26T05:37:27;100637.94;;;23.34;96.77
21640;BME280;10981;45.462;10.974;2023-06-26T05:39:58;100633.75;;;23.65;97.63
21640;BME280;10981;45.462;10.974;2023-06-26T05:42:27;100624.50;;;25.14;92.91
21640;BME280;10981;45.462;10.974;2023-06-26T05:44:56;100622.66;;;28.08;78.22
21640;BME280;10981;45.462;10.974;2023-06-26T05:47:24;100624.28;;;28.09;75.00
21640;BME280;10981;45.462;10.974;2023-06-26T05:49:53;100619.75;;;27.28;75.29
21640;BME280;10981;45.462;10.974;2023-06-26T05:52:22;100614.41;;;26.68;78.67
21640;BME280;10981;45.462;10.974;2023-06-26T05:54:50;100620.88;;;26.25;82.14
21640;BME280;10981;45.462;10.974;2023-06-26T05:57:19;100619.84;;;25.95;84.42
21640;BME280;10981;45.462;10.974;2023-06-26T05:59:48;100625.22;;;25.77;85.01
21640;BME280;10981;45.462;10.974;2023-06-26T06:02:16;100630.69;;;25.70;82.86
21640;BME280;10981;45.462;10.974;2023-06-26T06:04:44;100626.22;;;25.64;84.64
21640;BME280;10981;45.462;10.974;2023-06-26T06:07:14;100625.72;;;25.86;83.51
21640;BME280;10981;45.462;10.974;2023-06-26T06:09:42;100626.00;;;26.81;78.36
21640;BME280;10981;45.462;10.974;2023-06-26T06:12:10;100626.22;;;26.91;76.98
21640;BME280;10981;45.462;10.974;2023-06-26T06:14:39;100625.13;;;26.68;77.30
21640;BME280;10981;45.462;10.974;2023-06-26T06:17:07;100629.53;;;26.51;77.02
21640;BME280;10981;45.462;10.974;2023-06-26T06:19:35;100627.78;;;26.44;75.98
21640;BME280;10981;45.462;10.974;2023-06-26T06:22:03;100631.19;;;26.40;75.87
21640;BME280;10981;45.462;10.974;2023-06-26T06:24:32;100622.09;;;26.41;77.08
21640;BME280;10981;45.462;10.974;2023-06-26T06:27:00;100621.72;;;26.37;79.76
21640;BME280;10981;45.462;10.974;2023-06-26T06:29:28;100623.25;;;26.45;77.88
21640;BME280;10981;45.462;10.974;2023-06-26T06:31:57;100626.53;;;26.59;75.63
21640;BME280;10981;45.462;10.974;2023-06-26T06:34:25;100624.47;;;26.73;74.35
21640;BME280;10981;45.462;10.974;2023-06-26T06:36:54;100628.78;;;26.86;71.94
21640;BME280;10981;45.462;10.974;2023-06-26T06:39:22;100618.63;;;27.00;72.03
21640;BME280;10981;45.462;10.974;2023-06-26T06:41:50;100623.97;;;27.12;72.55
21640;BME280;10981;45.462;10.974;2023-06-26T06:44:18;100622.66;;;27.26;74.00
21640;BME280;10981;45.462;10.974;2023-06-26T06:46:47;100621.75;;;27.44;71.39
21640;BME280;10981;45.462;10.974;2023-06-26T06:49:15;100629.06;;;27.61;69.30
21640;BME280;10981;45.462;10.974;2023-06-26T06:51:43;100622.50;;;27.85;68.51
21640;BME280;10981;45.462;10.974;2023-06-26T06:54:11;100622.34;;;28.21;67.58
21640;BME280;10981;45.462;10.974;2023-06-26T06:56:40;100624.91;;;28.62;64.03
21640;BME280;10981;45.462;10.974;2023-06-26T06:59:08;100629.09;;;28.92;62.11
21640;BME280;10981;45.462;10.974;2023-06-26T07:01:36;100624.91;;;29.18;62.90
21640;BME280;10981;45.462;10.974;2023-06-26T07:04:05;100621.09;;;29.36;60.75
21640;BME280;10981;45.462;10.974;2023-06-26T07:06:33;100626.19;;;29.55;59.26
21640;BME280;10981;45.462;10.974;2023-06-26T07:09:02;100628.03;;;29.76;59.58
21640;BME280;10981;45.462;10.974;2023-06-26T07:11:31;100624.75;;;29.96;60.33
21640;BME280;10981;45.462;10.974;2023-06-26T07:13:59;100627.28;;;29.81;59.01
21640;BME280;10981;45.462;10.974;2023-06-26T07:16:27;100624.28;;;29.77;61.14
21640;BME280;10981;45.462;10.974;2023-06-26T07:18:55;100616.72;;;30.02;59.44
21640;BME280;10981;45.462;10.974;2023-06-26T07:21:25;100626.16;;;30.37;57.72
21640;BME280;10981;45.462;10.974;2023-06-26T07:23:54;100619.06;;;30.58;57.87
21640;BME280;10981;45.462;10.974;2023-06-26T07:26:22;100615.78;;;30.93;57.69
21640;BME280;10981;45.462;10.974;2023-06-26T07:29:08;100613.91;;;30.99;56.61
21640;BME280;10981;45.462;10.974;2023-06-26T07:31:36;100618.44;;;30.88;56.79
21640;BME280;10981;45.462;10.974;2023-06-26T07:34:05;100621.97;;;30.94;55.70
21640;BME280;10981;45.462;10.974;2023-06-26T07:36:33;100618.59;;;31.09;55.09
21640;BME280;10981;45.462;10.974;2023-06-26T07:39:01;100625.94;;;31.19;54.74
21640;BME280;10981;45.462;10.974;2023-06-26T07:41:29;100623.09;;;30.98;55.52
21640;BME280;10981;45.462;10.974;2023-06-26T07:43:59;100622.53;;;30.96;56.71
21640;BME280;10981;45.462;10.974;2023-06-26T07:46:27;100620.44;;;31.03;56.15
21640;BME280;10981;45.462;10.974;2023-06-26T07:48:56;100627.84;;;31.28;54.54
21640;BME280;10981;45.462;10.974;2023-06-26T07:51:24;100625.56;;;31.63;55.81
21640;BME280;10981;45.462;10.974;2023-06-26T07:53:52;100617.75;;;31.77;56.64
21640;BME280;10981;45.462;10.974;2023-06-26T07:56:20;100620.50;;;31.92;57.39
21640;BME280;10981;45.462;10.974;2023-06-26T07:58:49;100623.47;;;31.96;55.66
21640;BME280;10981;45.462;10.974;2023-06-26T08:01:18;100618.34;;;32.15;53.70
21640;BME280;10981;45.462;10.974;2023-06-26T08:03:46;100622.44;;;32.23;54.13
21640;BME280;10981;45.462;10.974;2023-06-26T08:06:14;100628.88;;;32.53;52.28
21640;BME280;10981;45.462;10.974;2023-06-26T08:08:43;100620.22;;;32.82;52.32
21640;BME280;10981;45.462;10.974;2023-06-26T08:11:11;100622.38;;;32.74;53.04
21640;BME280;10981;45.462;10.974;2023-06-26T08:13:39;100619.41;;;32.60;54.63
21640;BME280;10981;45.462;10.974;2023-06-26T08:16:07;100624.03;;;32.55;53.89
21640;BME280;10981;45.462;10.974;2023-06-26T08:18:35;100625.09;;;32.59;52.42
21640;BME280;10981;45.462;10.974;2023-06-26T08:21:06;100622.63;;;32.73;56.42
21640;BME280;10981;45.462;10.974;2023-06-26T08:23:34;100619.94;;;32.78;54.65
21640;BME280;10981;45.462;10.974;2023-06-26T08:26:04;100616.16;;;32.58;54.26
21640;BME280;10981;45.462;10.974;2023-06-26T08:28:32;100612.66;;;32.42;54.40
21640;BME280;10981;45.462;10.974;2023-06-26T08:31:00;100616.41;;;32.62;54.79
21640;BME280;10981;45.462;10.974;2023-06-26T08:33:28;100607.19;;;32.68;55.17
21640;BME280;10981;45.462;10.974;2023-06-26T08:35:57;100612.06;;;32.87;53.67
21640;BME280;10981;45.462;10.974;2023-06-26T08:38:25;100612.63;;;32.89;52.98
21640;BME280;10981;45.462;10.974;2023-06-26T08:40:53;100600.97;;;32.83;54.64
21640;BME280;10981;45.462;10.974;2023-06-26T08:43:21;100597.66;;;33.02;54.00
21640;BME280;10981;45.462;10.974;2023-06-26T08:45:50;100604.09;;;33.16;51.99
21640;BME280;10981;45.462;10.974;2023-06-26T08:48:21;100600.56;;;33.21;52.01
21640;BME280;10981;45.462;10.974;2023-06-26T08:50:50;100599.47;;;33.17;51.75
21640;BME280;10981;45.462;10.974;2023-06-26T08:56:52;100592.97;;;33.18;52.41
21640;BME280;10981;45.462;10.974;2023-06-26T08:59:24;100594.81;;;33.38;54.81
21640;BME280;10981;45.462;10.974;2023-06-26T09:01:52;100589.63;;;33.41;52.27
21640;BME280;10981;45.462;10.974;2023-06-26T09:04:21;100588.88;;;33.31;52.42
21640;BME280;10981;45.462;10.974;2023-06-26T09:06:49;100588.84;;;33.36;51.90
21640;BME280;10981;45.462;10.974;2023-06-26T09:09:17;100587.66;;;33.52;51.96
21640;BME280;10981;45.462;10.974;2023-06-26T09:11:45;100582.50;;;33.56;51.87
21640;BME280;10981;45.462;10.974;2023-06-26T09:14:14;100579.22;;;33.59;52.39
21640;BME280;10981;45.462;10.974;2023-06-26T09:16:45;100584.13;;;33.57;53.10
21640;BME280;10981;45.462;10.974;2023-06-26T09:19:13;100583.69;;;33.39;51.07
21640;BME280;10981;45.462;10.974;2023-06-26T09:21:43;100589.88;;;33.50;51.38
21640;BME280;10981;45.462;10.974;2023-06-26T09:24:11;100581.00;;;33.74;49.47
21640;BME280;10981;45.462;10.974;2023-06-26T09:26:40;100569.38;;;33.73;50.28
21640;BME280;10981;45.462;10.974;2023-06-26T09:29:09;100574.16;;;33.92;52.42
21640;BME280;10981;45.462;10.974;2023-06-26T09:31:39;100567.81;;;34.02;48.80
21640;BME280;10981;45.462;10.974;2023-06-26T09:34:10;100568.44;;;34.23;49.74
21640;BME280;10981;45.462;10.974;2023-06-26T09:36:38;100567.16;;;34.45;47.88
21640;BME280;10981;45.462;10.974;2023-06-26T09:39:08;100569.03;;;34.49;46.59
21640;BME280;10981;45.462;10.974;2023-06-26T09:41:44;100557.78;;;34.32;47.77
21640;BME280;10981;45.462;10.974;2023-06-26T09:44:14;100564.56;;;34.34;49.37
21640;BME280;10981;45.462;10.974;2023-06-26T09:46:45;100559.72;;;34.26;47.22
21640;BME280;10981;45.462;10.974;2023-06-26T09:49:14;100559.88;;;34.40;45.48
21640;BME280;10981;45.462;10.974;2023-06-26T09:51:43;100561.09;;;34.53;44.04
21640;BME280;10981;45.462;10.974;2023-06-26T09:54:11;100558.00;;;34.65;43.82
21640;BME280;10981;45.462;10.974;2023-06-26T09:56:39;100558.03;;;34.84;41.40
21640;BME280;10981;45.462;10.974;2023-06-26T09:59:08;100556.41;;;34.83;40.72
21640;BME280;10981;45.462;10.974;2023-06-26T10:01:41;100554.00;;;34.81;43.69
21640;BME280;10981;45.462;10.974;2023-06-26T10:04:10;100540.63;;;34.61;44.14
21640;BME280;10981;45.462;10.974;2023-06-26T10:06:50;100548.00;;;34.60;45.43
21640;BME280;10981;45.462;10.974;2023-06-26T10:09:20;100548.56;;;34.81;44.27
21640;BME280;10981;45.462;10.974;2023-06-26T10:12:03;100547.31;;;34.98;43.50
21640;BME280;10981;45.462;10.974;2023-06-26T10:14:38;100548.50;;;35.11;43.63
21640;BME280;10981;45.462;10.974;2023-06-26T10:17:16;100548.03;;;34.79;44.52
21640;BME280;10981;45.462;10.974;2023-06-26T10:19:45;100539.22;;;34.93;45.38
21640;BME280;10981;45.462;10.974;2023-06-26T10:22:20;100538.88;;;35.18;43.47
21640;BME280;10981;45.462;10.974;2023-06-26T10:24:50;100540.34;;;35.30;44.05
21640;BME280;10981;45.462;10.974;2023-06-26T10:27:20;100544.22;;;35.24;43.33
21640;BME280;10981;45.462;10.974;2023-06-26T10:29:58;100540.72;;;35.23;41.70
21640;BME280;10981;45.462;10.974;2023-06-26T10:32:29;100539.72;;;35.14;43.93
21640;BME280;10981;45.462;10.974;2023-06-26T10:34:57;100545.31;;;35.23;42.95
21640;BME280;10981;45.462;10.974;2023-06-26T10:37:46;100547.34;;;35.36;43.30
21640;BME280;10981;45.462;10.974;2023-06-26T10:40:27;100552.41;;;35.43;42.48
21640;BME280;10981;45.462;10.974;2023-06-26T10:43:08;100553.44;;;35.47;40.94
21640;BME280;10981;45.462;10.974;2023-06-26T10:45:43;100541.75;;;35.46;43.38
21640;BME280;10981;45.462;10.974;2023-06-26T10:48:16;100538.03;;;34.75;43.35
21640;BME280;10981;45.462;10.974;2023-06-26T10:50:47;100538.09;;;34.69;42.74
21640;BME280;10981;45.462;10.974;2023-06-26T10:58:41;100528.72;;;34.81;40.85
21640;BME280;10981;45.462;10.974;2023-06-26T11:01:22;100525.97;;;34.86;43.24
21640;BME280;10981;45.462;10.974;2023-06-26T11:04:05;100530.72;;;35.18;42.30
21640;BME280;10981;45.462;10.974;2023-06-26T11:06:34;100514.97;;;35.54;41.53
21640;BME280;10981;45.462;10.974;2023-06-26T11:09:07;100520.59;;;35.76;40.46
21640;BME280;10981;45.462;10.974;2023-06-26T11:11:54;100522.50;;;35.95;38.74
21640;BME280;10981;45.462;10.974;2023-06-26T11:14:26;100516.63;;;35.68;38.53
21640;BME280;10981;45.462;10.974;2023-06-26T11:16:56;100521.50;;;35.72;39.31
21640;BME280;10981;45.462;10.974;2023-06-26T11:19:27;100520.22;;;35.83;39.99
21640;BME280;10981;45.462;10.974;2023-06-26T11:22:01;100520.00;;;36.12;40.81
21640;BME280;10981;45.462;10.974;2023-06-26T11:24:30;100513.97;;;36.29;40.15
21640;BME280;10981;45.462;10.974;2023-06-26T11:27:02;100529.13;;;36.36;39.94
21640;BME280;10981;45.462;10.974;2023-06-26T11:29:32;100525.50;;;36.40;40.05
21640;BME280;10981;45.462;10.974;2023-06-26T11:32:03;100522.66;;;36.31;40.18
21640;BME280;10981;45.462;10.974;2023-06-26T11:34:34;100520.03;;;36.26;40.95
21640;BME280;10981;45.462;10.974;2023-06-26T11:37:03;100523.44;;;36.32;40.32
21640;BME280;10981;45.462;10.974;2023-06-26T11:39:31;100512.28;;;36.47;40.40
21640;BME280;10981;45.462;10.974;2023-06-26T11:42:00;100512.47;;;36.37;41.60
21640;BME280;10981;45.462;10.974;2023-06-26T11:44:33;100508.66;;;36.38;40.20
21640;BME280;10981;45.462;10.974;2023-06-26T11:47:13;100509.13;;;36.68;41.45
21640;BME280;10981;45.462;10.974;2023-06-26T11:49:46;100515.38;;;36.83;41.97
21640;BME280;10981;45.462;10.974;2023-06-26T11:52:16;100503.59;;;36.31;41.27
21640;BME280;10981;45.462;10.974;2023-06-26T11:54:45;100502.75;;;36.17;41.88
21640;BME280;10981;45.462;10.974;2023-06-26T11:57:17;100498.66;;;36.47;39.76
21640;BME280;10981;45.462;10.974;2023-06-26T11:59:50;100497.88;;;36.47;40.91
21640;BME280;10981;45.462;10.974;2023-06-26T12:02:21;100497.63;;;36.15;41.28
21640;BME280;10981;45.462;10.974;2023-06-26T12:04:50;100499.84;;;36.27;42.09
21640;BME280;10981;45.462;10.974;2023-06-26T12:07:19;100497.81;;;36.05;41.52
21640;BME280;10981;45.462;10.974;2023-06-26T12:09:48;100491.47;;;36.52;40.45
21640;BME280;10981;45.462;10.974;2023-06-26T12:12:18;100481.63;;;36.56;40.72
21640;BME280;10981;45.462;10.974;2023-06-26T12:14:46;100491.75;;;36.78;40.84
21640;BME280;10981;45.462;10.974;2023-06-26T12:17:15;100479.47;;;36.67;41.56
21640;BME280;10981;45.462;10.974;2023-06-26T12:19:45;100489.47;;;36.85;39.61
21640;BME280;10981;45.462;10.974;2023-06-26T12:22:17;100484.19;;;37.03;39.46
21640;BME280;10981;45.462;10.974;2023-06-26T12:24:47;100477.72;;;36.98;39.20
21640;BME280;10981;45.462;10.974;2023-06-26T12:27:17;100477.47;;;37.09;40.15
21640;BME280;10981;45.462;10.974;2023-06-26T12:29:51;100483.38;;;37.25;39.41
21640;BME280;10981;45.462;10.974;2023-06-26T12:32:25;100485.16;;;37.43;39.88
21640;BME280;10981;45.462;10.974;2023-06-26T12:34:57;100480.44;;;37.81;40.47
21640;BME280;10981;45.462;10.974;2023-06-26T12:37:25;100469.91;;;37.74;39.43
21640;BME280;10981;45.462;10.974;2023-06-26T12:39:57;100476.09;;;37.34;41.99
21640;BME280;10981;45.462;10.974;2023-06-26T12:42:27;100470.72;;;37.29;40.26
21640;BME280;10981;45.462;10.974;2023-06-26T12:44:59;100470.53;;;37.03;39.87
21640;BME280;10981;45.462;10.974;2023-06-26T12:47:28;100477.47;;;37.09;41.95
21640;BME280;10981;45.462;10.974;2023-06-26T12:49:57;100475.50;;;37.23;39.35
21640;BME280;10981;45.462;10.974;2023-06-26T12:52:25;100470.97;;;37.19;39.36
21640;BME280;10981;45.462;10.974;2023-06-26T12:54:55;100464.78;;;37.50;39.45
21640;BME280;10981;45.462;10.974;2023-06-26T12:57:25;100469.50;;;37.58;40.22
21640;BME280;10981;45.462;10.974;2023-06-26T12:59:54;100460.44;;;37.26;39.15
21640;BME280;10981;45.462;10.974;2023-06-26T13:02:22;100454.53;;;37.10;39.85
21640;BME280;10981;45.462;10.974;2023-06-26T13:04:50;100455.84;;;37.12;40.68
21640;BME280;10981;45.462;10.974;2023-06-26T13:07:19;100454.00;;;37.22;40.92
21640;BME280;10981;45.462;10.974;2023-06-26T13:09:47;100457.88;;;37.43;40.74